createdAt,value
2022-10-04T00:01:13.407Z,10.91
2022-10-04T00:03:48.702Z,10.97
2022-10-04T00:06:25.123Z,11.02
2022-10-04T00:08:55.293Z,11.03
2022-10-04T00:11:32.483Z,11.03
2022-10-04T00:14:05.332Z,10.97
2022-10-04T00:16:37.084Z,10.92
2022-10-04T00:19:15.857Z,10.93
2022-10-04T00:21:55.363Z,10.94
2022-10-04T00:24:27.926Z,10.95
2022-10-04T00:27:10.203Z,10.98
2022-10-04T00:29:42.328Z,10.97
2022-10-04T00:32:11.547Z,10.96
2022-10-04T00:34:50.510Z,10.91
2022-10-04T00:37:19.070Z,10.95
2022-10-04T00:40:12.944Z,10.90
2022-10-04T00:43:03.253Z,10.84
2022-10-04T00:45:35.302Z,10.81
2022-10-04T00:48:04.617Z,10.79
2022-10-04T00:50:38.760Z,10.78
2022-10-04T00:53:31.484Z,10.82
2022-10-04T00:56:03.443Z,10.83
2022-10-04T00:58:37.390Z,10.86
2022-10-04T01:01:05.177Z,10.90
2022-10-04T01:03:39.781Z,10.93
2022-10-04T01:06:08.723Z,10.92
2022-10-04T01:08:40.777Z,10.90
2022-10-04T01:11:13.167Z,10.87
2022-10-04T01:13:58.642Z,10.85
2022-10-04T01:16:27.848Z,10.82
2022-10-04T01:18:54.521Z,10.76
2022-10-04T01:21:20.934Z,10.81
2022-10-04T01:23:53.248Z,10.77
2022-10-04T01:26:35.008Z,10.75
2022-10-04T01:29:07.366Z,10.67
2022-10-04T01:31:37.542Z,10.66
2022-10-04T01:34:05.691Z,10.69
2022-10-04T01:36:33.679Z,10.70
2022-10-04T01:39:00.739Z,10.72
2022-10-04T01:41:51.342Z,10.74
2022-10-04T01:44:27.601Z,10.69
2022-10-04T01:46:56.814Z,10.63
2022-10-04T01:49:28.774Z,10.68
2022-10-04T01:52:08.597Z,10.73
2022-10-04T01:54:41.232Z,10.71
2022-10-04T01:57:25.018Z,10.63
2022-10-04T01:59:55.062Z,10.65
2022-10-04T02:02:30.760Z,10.59
2022-10-04T02:04:59.554Z,10.53
2022-10-04T02:07:31.962Z,10.42
2022-10-04T02:10:02.883Z,10.42
2022-10-04T02:12:34.858Z,10.38
2022-10-04T02:15:04.282Z,10.35
2022-10-04T02:17:37.537Z,10.36
2022-10-04T02:20:14.298Z,10.41
2022-10-04T02:22:43.195Z,10.43
2022-10-04T02:25:10.714Z,10.48
2022-10-04T02:27:37.391Z,10.52
2022-10-04T02:30:07.790Z,10.52
2022-10-04T02:32:54.000Z,10.53
2022-10-04T02:35:21.200Z,10.54
2022-10-04T02:37:58.623Z,10.52
2022-10-04T02:40:39.395Z,10.48
2022-10-04T02:43:20.570Z,10.47
2022-10-04T02:46:13.885Z,10.44
2022-10-04T02:48:56.716Z,10.43
2022-10-04T02:51:46.407Z,10.34
2022-10-04T02:54:31.975Z,10.34
2022-10-04T02:56:59.418Z,10.28
2022-10-04T02:59:26.570Z,10.27
2022-10-04T03:01:57.763Z,10.21
2022-10-04T03:04:39.030Z,10.15
2022-10-04T03:07:07.983Z,10.19
2022-10-04T03:09:37.797Z,10.25
2022-10-04T03:12:05.464Z,10.19
2022-10-04T03:14:32.533Z,10.18
2022-10-04T03:17:03.981Z,10.17
2022-10-04T03:19:32.549Z,10.15
2022-10-04T03:22:12.338Z,10.22
2022-10-04T03:24:54.418Z,10.25
2022-10-04T03:27:25.815Z,10.26
2022-10-04T03:29:58.269Z,10.32
2022-10-04T03:32:27.087Z,10.32
2022-10-04T03:35:02.958Z,10.31
2022-10-04T03:37:32.190Z,10.36
2022-10-04T03:39:59.904Z,10.27
2022-10-04T03:42:30.311Z,10.27
2022-10-04T03:45:07.478Z,10.32
2022-10-04T03:47:38.516Z,10.28
2022-10-04T03:50:22.068Z,10.29
2022-10-04T03:52:53.997Z,10.18
2022-10-04T03:55:24.227Z,10.16
2022-10-04T03:57:52.038Z,10.16
2022-10-04T04:00:19.519Z,10.12
2022-10-04T04:02:52.319Z,10.11
2022-10-04T04:05:29.873Z,10.11
2022-10-04T04:08:15.230Z,10.16
2022-10-04T04:10:50.296Z,10.13
2022-10-04T04:13:28.882Z,10.08
2022-10-04T04:15:56.733Z,10.08
2022-10-04T04:18:25.111Z,10.08
2022-10-04T04:20:56.875Z,10.07
2022-10-04T04:23:28.268Z,10.05
2022-10-04T04:25:59.732Z,10.02
2022-10-04T04:28:28.868Z,10.05
2022-10-04T04:31:27.069Z,9.99
2022-10-04T04:34:00.294Z,9.97
2022-10-04T04:36:32.172Z,10.02
2022-10-04T04:39:34.559Z,10.12
2022-10-04T04:42:14.914Z,10.14
2022-10-04T04:44:56.218Z,10.16
2022-10-04T04:47:30.346Z,10.16
2022-10-04T04:50:03.373Z,10.19
2022-10-04T04:52:31.808Z,10.25
2022-10-04T04:54:58.811Z,10.34
2022-10-04T04:57:25.742Z,10.42
2022-10-04T04:59:58.292Z,10.45
2022-10-04T05:02:36.808Z,10.49
2022-10-04T05:05:20.179Z,10.51
2022-10-04T05:07:47.787Z,10.56
2022-10-04T05:10:22.316Z,10.56
2022-10-04T05:12:49.651Z,10.57
2022-10-04T05:15:16.843Z,10.59
2022-10-04T05:17:45.279Z,10.63
2022-10-04T05:20:14.654Z,10.64
2022-10-04T05:22:46.772Z,10.73
2022-10-04T05:25:25.434Z,10.70
2022-10-04T05:27:53.742Z,10.66
2022-10-04T05:31:05.539Z,10.65
2022-10-04T05:33:51.434Z,10.66
2022-10-04T05:36:25.827Z,10.68
2022-10-04T05:39:02.829Z,10.61
2022-10-04T05:41:47.772Z,10.55
2022-10-04T05:44:50.277Z,10.50
2022-10-04T05:47:22.883Z,10.45
2022-10-04T05:49:52.127Z,10.44
2022-10-04T05:52:38.836Z,10.39
2022-10-04T05:55:28.689Z,10.44
2022-10-04T05:58:22.829Z,10.47
2022-10-04T06:01:22.562Z,10.48
2022-10-04T06:04:04.219Z,10.49
2022-10-04T06:06:51.460Z,10.55
2022-10-04T06:09:26.695Z,10.61
2022-10-04T06:12:08.319Z,10.68
2022-10-04T06:15:08.407Z,10.71
2022-10-04T06:17:45.644Z,10.75
2022-10-04T06:21:03.804Z,10.81
2022-10-04T06:23:33.695Z,10.91
2022-10-04T06:26:12.723Z,10.93
2022-10-04T06:28:55.797Z,10.99
2022-10-04T06:31:24.260Z,11.04
2022-10-04T06:34:12.306Z,11.10
2022-10-04T06:37:10.863Z,11.19
2022-10-04T06:39:58.124Z,11.25
2022-10-04T06:42:37.121Z,11.25
2022-10-04T06:45:12.331Z,11.30
2022-10-04T06:47:51.231Z,11.30
2022-10-04T06:50:36.190Z,11.27
2022-10-04T06:53:02.556Z,11.34
2022-10-04T06:55:49.776Z,11.43
2022-10-04T06:58:49.761Z,11.48
2022-10-04T07:01:38.353Z,11.54
2022-10-04T07:05:06.867Z,11.60
2022-10-04T07:07:36.103Z,11.63
2022-10-04T07:10:33.131Z,11.67
2022-10-04T07:13:40.978Z,11.66
2022-10-04T07:16:17.682Z,11.74
2022-10-04T07:19:05.519Z,11.77
2022-10-04T07:22:07.298Z,11.86
2022-10-04T07:24:51.458Z,11.99
2022-10-04T07:27:26.114Z,12.10
2022-10-04T07:29:58.100Z,12.20
2022-10-04T07:32:30.040Z,12.31
2022-10-04T07:35:16.897Z,12.39
2022-10-04T07:38:15.818Z,12.48
2022-10-04T07:41:21.688Z,12.60
2022-10-04T07:44:03.879Z,12.72
2022-10-04T07:46:42.208Z,12.79
2022-10-04T07:49:17.819Z,12.92
2022-10-04T07:52:10.603Z,13.00
2022-10-04T07:54:43.654Z,13.10
2022-10-04T07:57:28.050Z,13.20
2022-10-04T08:00:17.673Z,13.27
2022-10-04T08:03:09.073Z,13.38
2022-10-04T08:05:48.107Z,13.45
2022-10-04T08:08:46.204Z,13.48
2022-10-04T08:11:18.354Z,13.50
2022-10-04T08:14:09.115Z,13.64
2022-10-04T08:16:45.825Z,13.83
2022-10-04T08:19:36.063Z,13.96
2022-10-04T08:22:12.370Z,14.02
2022-10-04T08:24:53.476Z,14.08
2022-10-04T08:27:41.592Z,14.14
2022-10-04T08:30:18.190Z,14.17
2022-10-04T08:33:26.300Z,14.22
2022-10-04T08:36:00.532Z,14.29
2022-10-04T08:38:47.939Z,14.33
2022-10-04T08:41:43.149Z,14.38
2022-10-04T08:44:28.499Z,14.40
2022-10-04T08:47:22.204Z,14.50
2022-10-04T08:49:54.834Z,14.50
2022-10-04T08:52:49.702Z,14.60
2022-10-04T08:55:58.127Z,14.66
2022-10-04T08:58:42.955Z,14.75
2022-10-04T09:01:31.672Z,14.76
2022-10-04T09:04:31.897Z,14.79
2022-10-04T09:07:35.592Z,14.84
2022-10-04T09:10:05.602Z,15.00
2022-10-04T09:13:02.854Z,15.08
2022-10-04T09:15:39.385Z,15.09
2022-10-04T09:18:11.875Z,15.13
2022-10-04T09:21:11.725Z,15.21
2022-10-04T09:23:59.696Z,15.33
2022-10-04T09:26:37.582Z,15.45
2022-10-04T09:29:22.419Z,15.40
2022-10-04T09:31:57.765Z,15.40
2022-10-04T09:34:24.565Z,15.39
2022-10-04T09:37:23.984Z,15.44
2022-10-04T09:40:08.220Z,15.43
2022-10-04T09:42:52.496Z,15.49
2022-10-04T09:45:37.812Z,15.50
2022-10-04T09:48:37.072Z,15.40
2022-10-04T09:51:08.037Z,15.41
2022-10-04T09:54:07.690Z,15.44
2022-10-04T09:56:46.795Z,15.41
2022-10-04T09:59:39.748Z,15.33
2022-10-04T10:02:18.739Z,15.33
2022-10-04T10:05:06.883Z,15.40
2022-10-04T10:07:52.826Z,15.42
2022-10-04T10:11:02.712Z,15.44
2022-10-04T10:13:56.392Z,15.40
2022-10-04T10:16:52.263Z,15.34
2022-10-04T10:20:11.896Z,15.28
2022-10-04T10:23:01.127Z,15.29
2022-10-04T10:25:49.286Z,15.29
2022-10-04T10:28:37.494Z,15.26
2022-10-04T10:31:28.407Z,15.22
2022-10-04T10:34:21.484Z,15.16
2022-10-04T10:37:09.963Z,15.24
2022-10-04T10:40:14.408Z,15.33
2022-10-04T10:43:01.175Z,15.38
2022-10-04T10:46:06.179Z,15.61
2022-10-04T10:49:02.978Z,16.28
2022-10-04T10:51:56.065Z,16.53
2022-10-04T10:55:03.547Z,16.89
2022-10-04T10:58:11.693Z,17.83
2022-10-04T11:00:51.407Z,18.70
2022-10-04T11:03:36.424Z,19.35
2022-10-04T11:06:39.402Z,20.21
2022-10-04T11:09:35.055Z,20.77
2022-10-04T11:12:07.298Z,21.27
2022-10-04T11:14:55.319Z,22.13
2022-10-04T11:17:27.978Z,22.49
2022-10-04T11:20:05.753Z,22.93
2022-10-04T11:23:00.112Z,22.99
2022-10-04T11:26:05.255Z,23.70
2022-10-04T11:28:43.365Z,24.52
2022-10-04T11:31:37.605Z,24.34
2022-10-04T11:34:41.442Z,23.65
2022-10-04T11:37:07.899Z,22.95
2022-10-04T11:39:46.227Z,22.13
2022-10-04T11:42:18.107Z,21.65
2022-10-04T11:45:19.850Z,21.70
2022-10-04T11:48:21.439Z,22.52
2022-10-04T11:50:56.866Z,22.47
2022-10-04T11:53:27.308Z,22.13
2022-10-04T11:56:19.305Z,21.82
2022-10-04T11:59:00.822Z,22.03
2022-10-04T12:01:52.073Z,22.13
2022-10-04T12:04:47.986Z,21.22
2022-10-04T12:07:39.220Z,20.81
2022-10-04T12:10:29.924Z,19.94
2022-10-04T12:13:27.728Z,19.44
2022-10-04T12:16:31.666Z,19.50
2022-10-04T12:19:20.942Z,20.75
2022-10-04T12:22:07.532Z,21.66
2022-10-04T12:25:03.478Z,21.91
2022-10-04T12:27:48.341Z,21.54
2022-10-04T12:30:46.485Z,22.30
2022-10-04T12:33:15.711Z,22.56
2022-10-04T12:35:58.451Z,23.11
2022-10-04T12:38:46.657Z,23.26
2022-10-04T12:41:25.023Z,23.94
2022-10-04T12:44:05.087Z,24.23
2022-10-04T12:46:53.065Z,23.85
2022-10-04T12:49:41.897Z,23.67
2022-10-04T12:52:16.442Z,23.76
2022-10-04T12:54:47.595Z,24.04
2022-10-04T12:57:14.027Z,24.45
2022-10-04T12:59:51.071Z,25.17
2022-10-04T13:02:29.495Z,26.01
2022-10-04T13:05:20.569Z,26.67
2022-10-04T13:08:24.670Z,27.51
2022-10-04T13:11:07.608Z,27.19
2022-10-04T13:13:51.698Z,27.45
2022-10-04T13:19:31.215Z,27.82
2022-10-04T13:22:44.038Z,27.75
2022-10-04T13:25:15.259Z,28.09
2022-10-04T13:28:16.722Z,28.29
2022-10-04T13:31:05.779Z,28.30
2022-10-04T13:33:50.661Z,28.69
2022-10-04T13:36:29.367Z,28.79
2022-10-04T13:39:07.404Z,28.43
2022-10-04T13:41:43.647Z,28.97
2022-10-04T13:44:24.918Z,29.16
2022-10-04T13:47:05.121Z,29.27
2022-10-04T13:50:02.520Z,29.83
2022-10-04T13:53:06.089Z,29.88
2022-10-04T13:55:58.221Z,29.96
2022-10-04T13:58:56.748Z,29.85
2022-10-04T14:01:38.141Z,29.90
2022-10-04T14:04:51.222Z,28.92
2022-10-04T14:07:56.484Z,28.92
2022-10-04T14:10:31.811Z,28.61
2022-10-04T14:13:18.267Z,27.83
2022-10-04T14:16:03.111Z,27.03
2022-10-04T14:18:35.386Z,27.33
2022-10-04T14:21:24.890Z,27.66
2022-10-04T14:23:54.729Z,27.82
2022-10-04T14:26:31.359Z,27.11
2022-10-04T14:29:09.790Z,27.17
2022-10-04T14:32:09.862Z,27.24
2022-10-04T14:34:57.014Z,27.12
2022-10-04T14:37:35.459Z,27.39
2022-10-04T14:40:20.179Z,27.48
2022-10-04T14:43:08.374Z,27.24
2022-10-04T14:45:53.624Z,27.20
2022-10-04T14:48:44.160Z,27.28
2022-10-04T14:51:19.525Z,26.94
2022-10-04T14:54:07.772Z,26.39
2022-10-04T14:56:58.602Z,25.18
2022-10-04T14:59:37.767Z,24.38
2022-10-04T15:02:07.326Z,24.20
2022-10-04T15:04:37.398Z,24.20
2022-10-04T15:07:31.897Z,23.83
2022-10-04T15:10:01.013Z,23.74
2022-10-04T15:13:10.042Z,24.00
2022-10-04T15:16:12.915Z,24.06
2022-10-04T15:19:04.458Z,24.41
2022-10-04T15:21:51.138Z,24.26
2022-10-04T15:24:24.207Z,24.33
2022-10-04T15:27:18.928Z,24.48
2022-10-04T15:30:23.558Z,23.80
2022-10-04T15:33:14.532Z,23.79
2022-10-04T15:36:02.391Z,23.41
2022-10-04T15:38:34.932Z,23.12
2022-10-04T15:41:29.553Z,22.90
2022-10-04T15:43:58.942Z,22.65
2022-10-04T15:46:39.346Z,22.61
2022-10-04T15:49:08.818Z,22.03
2022-10-04T15:52:03.266Z,21.73
2022-10-04T15:55:01.084Z,21.36
2022-10-04T15:57:45.877Z,20.84
2022-10-04T16:00:19.923Z,20.37
2022-10-04T16:02:49.465Z,20.06
2022-10-04T16:05:44.093Z,19.67
2022-10-04T16:08:11.036Z,19.56
2022-10-04T16:10:58.545Z,19.35
2022-10-04T16:13:28.450Z,18.82
2022-10-04T16:16:16.900Z,18.72
2022-10-04T16:19:09.954Z,18.29
2022-10-04T16:22:09.379Z,18.10
2022-10-04T16:24:45.694Z,17.73
2022-10-04T16:27:43.055Z,17.44
2022-10-04T16:30:27.509Z,17.24
2022-10-04T16:33:26.931Z,16.77
2022-10-04T16:36:13.202Z,16.73
2022-10-04T16:39:07.759Z,16.47
2022-10-04T16:41:40.650Z,16.30
2022-10-04T16:44:29.543Z,16.21
2022-10-04T16:47:03.122Z,15.95
2022-10-04T16:49:55.110Z,15.77
2022-10-04T16:52:48.150Z,15.70
2022-10-04T16:55:29.734Z,15.42
2022-10-04T16:58:27.199Z,15.33
2022-10-04T17:01:23.073Z,15.23
2022-10-04T17:04:04.888Z,15.20
2022-10-04T17:06:56.583Z,14.98
2022-10-04T17:09:32.438Z,14.98
2022-10-04T17:12:35.234Z,14.82
2022-10-04T17:15:40.265Z,14.72
2022-10-04T17:18:19.854Z,14.55
2022-10-04T17:20:57.004Z,14.36
2022-10-04T17:24:04.197Z,14.30
2022-10-04T17:26:38.411Z,14.26
2022-10-04T17:29:43.446Z,14.19
2022-10-04T17:32:29.690Z,14.15
2022-10-04T17:35:09.949Z,14.00
2022-10-04T17:37:58.864Z,14.03
2022-10-04T17:40:41.852Z,14.00
2022-10-04T17:43:15.427Z,13.92
2022-10-04T17:45:52.793Z,13.88
2022-10-04T17:49:21.293Z,13.79
2022-10-04T17:52:09.346Z,13.65
2022-10-04T17:54:57.130Z,13.79
2022-10-04T17:57:36.007Z,13.62
2022-10-04T18:00:15.210Z,13.52
2022-10-04T18:03:15.567Z,13.45
2022-10-04T18:05:42.023Z,13.16
2022-10-04T18:08:40.602Z,12.96
2022-10-04T18:11:47.065Z,13.12
2022-10-04T18:14:22.326Z,12.94
2022-10-04T18:16:57.192Z,12.98
2022-10-04T18:19:36.409Z,12.88
2022-10-04T18:22:26.463Z,12.77
2022-10-04T18:25:14.186Z,12.73
2022-10-04T18:28:06.969Z,12.83
2022-10-04T18:30:43.482Z,12.80
2022-10-04T18:33:16.448Z,12.80
2022-10-04T18:36:00.126Z,12.79
2022-10-04T18:38:31.138Z,12.70
2022-10-04T18:41:20.329Z,12.65
2022-10-04T18:43:51.369Z,12.49
2022-10-04T18:46:22.970Z,12.42
2022-10-04T18:49:12.336Z,12.38
2022-10-04T18:51:53.896Z,12.33
2022-10-04T18:54:48.426Z,12.23
2022-10-04T18:57:15.318Z,12.10
2022-10-04T19:00:10.801Z,12.03
2022-10-04T19:03:14.438Z,12.05
2022-10-04T19:05:54.779Z,11.99
2022-10-04T19:08:48.011Z,11.95
2022-10-04T19:11:28.727Z,11.91
2022-10-04T19:14:33.886Z,11.88
2022-10-04T19:17:07.510Z,11.82
2022-10-04T19:19:42.824Z,11.71
2022-10-04T19:22:22.703Z,11.63
2022-10-04T19:25:25.507Z,11.62
2022-10-04T19:28:18.478Z,11.51
2022-10-04T19:31:00.097Z,11.47
2022-10-04T19:33:52.744Z,11.45
2022-10-04T19:36:33.889Z,11.42
2022-10-04T19:39:34.603Z,11.32
2022-10-04T19:42:42.691Z,11.28
2022-10-04T19:45:43.914Z,11.17
2022-10-04T19:48:26.785Z,11.03
2022-10-04T19:51:03.735Z,11.09
2022-10-04T19:53:40.847Z,11.14
2022-10-04T19:56:16.463Z,11.05
2022-10-04T19:58:47.696Z,10.84
2022-10-04T20:01:24.057Z,10.92
2022-10-04T20:04:12.062Z,10.79
2022-10-04T20:06:50.079Z,10.77
2022-10-04T20:09:51.436Z,10.74
2022-10-04T20:12:40.191Z,10.57
2022-10-04T20:15:19.546Z,10.53
2022-10-04T20:17:49.856Z,10.38
2022-10-04T20:20:38.982Z,10.26
2022-10-04T20:23:09.897Z,10.13
2022-10-04T20:25:45.808Z,10.04
2022-10-04T20:28:27.672Z,9.92
2022-10-04T20:30:59.105Z,9.75
2022-10-04T20:33:34.500Z,9.66
2022-10-04T20:36:29.469Z,9.73
2022-10-04T20:39:01.900Z,9.65
2022-10-04T20:41:28.379Z,9.59
2022-10-04T20:44:04.060Z,9.53
2022-10-04T20:46:38.209Z,9.63
2022-10-04T20:49:14.194Z,9.62
2022-10-04T20:51:47.691Z,9.57
2022-10-04T20:54:21.787Z,9.54
2022-10-04T20:56:50.191Z,9.51
2022-10-04T20:59:17.863Z,9.57
2022-10-04T21:02:01.727Z,9.48
2022-10-04T21:04:32.743Z,9.46
2022-10-04T21:07:12.722Z,9.38
2022-10-04T21:09:41.438Z,9.42
2022-10-04T21:12:44.695Z,9.37
2022-10-04T21:15:17.315Z,9.27
2022-10-04T21:17:59.830Z,9.19
2022-10-04T21:20:46.115Z,9.13
2022-10-04T21:23:33.016Z,9.03
2022-10-04T21:26:21.425Z,8.95
2022-10-04T21:28:58.113Z,8.82
2022-10-04T21:31:25.455Z,8.83
2022-10-04T21:33:52.008Z,8.79
2022-10-04T21:36:18.521Z,8.79
2022-10-04T21:38:45.083Z,8.81
2022-10-04T21:41:11.635Z,8.75
2022-10-04T21:43:38.179Z,8.70
2022-10-04T21:46:04.958Z,8.66
2022-10-04T21:48:31.572Z,8.51
2022-10-04T21:50:58.090Z,8.55
2022-10-04T21:53:24.667Z,8.53
2022-10-04T21:55:51.243Z,8.61
2022-10-04T21:58:17.760Z,8.66
2022-10-04T22:00:44.343Z,8.65
2022-10-04T22:03:10.934Z,8.67
2022-10-04T22:05:37.471Z,8.76
2022-10-04T22:08:04.081Z,8.73
2022-10-04T22:10:31.124Z,8.76
2022-10-04T22:12:57.888Z,8.79
2022-10-04T22:15:25.499Z,8.79
2022-10-04T22:17:52.042Z,8.78
2022-10-04T22:20:18.955Z,8.81
2022-10-04T22:22:46.031Z,8.79
2022-10-04T22:25:18.418Z,8.79
2022-10-04T22:27:46.342Z,8.80
2022-10-04T22:30:38.895Z,8.70
2022-10-04T22:33:40.709Z,8.67
2022-10-04T22:36:31.443Z,8.64
2022-10-04T22:39:08.928Z,8.65
2022-10-04T22:41:38.984Z,8.63
2022-10-04T22:44:18.163Z,8.60
2022-10-04T22:46:48.982Z,8.61
2022-10-04T22:49:20.618Z,8.61
2022-10-04T22:51:49.215Z,8.59
2022-10-04T22:54:18.874Z,8.56
2022-10-04T22:56:45.578Z,8.49
2022-10-04T22:59:14.647Z,8.43
2022-10-04T23:01:42.855Z,8.42
2022-10-04T23:04:21.348Z,8.47
2022-10-04T23:06:48.548Z,8.38
2022-10-04T23:09:15.389Z,8.39
2022-10-04T23:11:42.307Z,8.41
2022-10-04T23:14:09.148Z,8.36
2022-10-04T23:16:36.532Z,8.26
2022-10-04T23:19:14.897Z,8.17
2022-10-04T23:21:45.096Z,8.12
2022-10-04T23:24:17.786Z,8.14
2022-10-04T23:26:50.334Z,8.19
2022-10-04T23:29:16.776Z,8.11
2022-10-04T23:31:43.534Z,8.09
2022-10-04T23:34:30.624Z,8.03
2022-10-04T23:36:58.017Z,7.98
2022-10-04T23:39:33.830Z,7.93
2022-10-04T23:42:13.224Z,7.97
2022-10-04T23:44:40.033Z,7.77
2022-10-04T23:47:18.345Z,7.56
2022-10-04T23:49:48.157Z,7.52
2022-10-04T23:52:20.333Z,7.45
2022-10-04T23:54:49.738Z,7.34
2022-10-04T23:57:22.235Z,7.35
2022-10-04T23:59:49.737Z,7.30
